USRRUNKL

Guest
Details From USRR - Surgut
To UNKL - Yemelyanovo
Flight Number -
Tags Generated
Created
Modified
Stats Distance 667 nm / 1,236 km
Max Altitude 0 ft / 0 m
Waypoints 3
Social Downloads 1
Likes 0
Share VATSIM

Download

Looking for another format? Having issues loading an existing format? Contact us
Advertisement - Login to hide

Notes

Generated

Route

USRR AJ UNKL

ID Type Via Altitude Latitude Longitude Leg Dist Tot Dist Heading (true) Name
O USRR APT - 0 ft / 0 m 61.34364˚ 73.37581˚ - 0 nm - -
AJ NDB - 0 ft / 0 m 56.19333˚ 92.40667˚ 665 nm 665 nm 109° / 126° KRASNOYARSK NDB
O UNKL APT - 0 ft / 0 m 56.17948˚ 92.46587˚ 2 nm 667 nm 113° / 113° -

Altitude Profile

Advertisement - Login to hide

Weather


0- 5 10 15 20 25 30 35+ Temperature / ° C

Clouds and Precipitation
Forecast for 2017-12-17 18:00 UTC. Updated an hour ago

Ground ~20,000 ft ~40,000 ft Winds

USRR

Details ICAO USRR (SGC)
Name SURGUT
Region Russia
Timezone Asia/Yekaterinburg (UTC+5.0)
Stats Elevation 200 ft / 61 m (AMSL)
Location 61.343693° 73.401842°
Runways 1
Magnetic Variation 17.101° E

METAR

USRR 171430Z 22004MPS 7000 NSC M09/M14 Q1031 R25/32//50 NOSIG RMK QFE768

Decode

TAF

TAF USRR 171355Z 1715/1815 23006G12MPS 9999 SCT030 TEMPO 1718/1724 SCT011

Decode

Departure Runways

ID Width Length Bearing (true) Bearing (mag) Surface Threshold Offset Overrun Length
07 148 ft / 45 m 9,112 ft / 2,778 m 89.72° 72.62° Asphalt 0 ft / 0 m 165 ft / 50 m
25 148 ft / 45 m 9,112 ft / 2,778 m 269.76° 252.66° Asphalt 0 ft / 0 m 165 ft / 50 m

UNKL

Details ICAO UNKL (KJA)
Name YEMELYANOVO
Region Russia
Timezone Asia/Krasnoyarsk (UTC+7.0)
Stats Elevation 942 ft / 287 m (AMSL)
Location 56.172946° 92.493276°
Runways 1
Magnetic Variation 4.123° E

METAR

UNKL 171430Z 27005MPS 9999 SCT028CB M06/M10 Q1036 R29/450142 NOSIG RMK QFE751

Decode

TAF

TAF UNKL 171400Z 1715/1815 26003G09MPS 7000 -SHSN SCT020CB TEMPO 1715/1721 28008G14MPS 1000 SHSN BLSN VV006 BECMG 1721/1722 9999 -SN SCT020 TEMPO 1722/1812 27009G14MPS 3500 -SN BLSN SCT012

Decode

Destination Runways

ID Width Length Bearing (true) Bearing (mag) Surface Threshold Offset Overrun Length
11 197 ft / 60 m 12,113 ft / 3,692 m 113.16° 109.04° Asphalt 0 ft / 0 m 235 ft / 72 m
29 197 ft / 60 m 12,113 ft / 3,692 m 293.21° 289.09° Asphalt 0 ft / 0 m 215 ft / 66 m

Popular Alternatives